Time;durP1;ratioP1;P1;durP2;ratioP2;P2;SDS_P1;SDS_P2;PMS_P1;PMS_P2;Temp;Humidity;BMP_temperature;BMP_pressure;BME280_temperature;BME280_humidity;BME280_pressure;Samples;Min_cycle;Max_cycle;Signal;HPM_P1;HPM_P2
2022/04/05 00:02:06;;;;;;;2.57;2.43;;;;;;;;;;4929991;29;20486;-58
2022/04/05 00:04:33;;;;;;;3.43;2.50;;;;;;;;;;4930539;29;20216;-61
2022/04/05 00:07:00;;;;;;;3.03;2.50;;;;;;;;;;4930116;29;20294;-60
2022/04/05 00:09:28;;;;;;;2.27;2.17;;;;;;;;;;4941979;29;20223;-59
2022/04/05 00:11:55;;;;;;;2.50;2.40;;;;;;;;;;4946749;29;20218;-58
2022/04/05 00:14:22;;;;;;;3.20;3.00;;;;;;;;;;4937983;29;20742;-58
2022/04/05 00:16:49;;;;;;;4.20;2.57;;;;;;;;;;4944595;29;20214;-59
2022/04/05 00:19:19;;;;;;;2.47;2.30;;;;;;;;;;4930817;29;20208;-58
2022/04/05 00:21:46;;;;;;;2.70;2.50;;;;;;;;;;4932761;29;20342;-58
2022/04/05 00:24:13;;;;;;;2.10;2.00;;;;;;;;;;4929871;29;20204;-58
2022/04/05 00:26:41;;;;;;;3.13;2.50;;;;;;;;;;4944125;29;20248;-58
2022/04/05 00:29:09;;;;;;;2.27;2.17;;;;;;;;;;4941518;29;20240;-58
2022/04/05 00:31:36;;;;;;;7.70;2.50;;;;;;;;;;4927418;29;20219;-58
2022/04/05 00:34:03;;;;;;;2.50;2.40;;;;;;;;;;4941054;29;20207;-59
2022/04/05 00:36:30;;;;;;;2.33;2.23;;;;;;;;;;4934639;29;20701;-60
2022/04/05 00:38:57;;;;;;;2.47;2.37;;;;;;;;;;4946040;29;20211;-60
2022/04/05 00:41:24;;;;;;;2.43;2.33;;;;;;;;;;4928803;29;20216;-60
2022/04/05 00:43:52;;;;;;;2.03;2.00;;;;;;;;;;4943582;28;20214;-60
2022/04/05 00:46:19;;;;;;;2.40;2.30;;;;;;;;;;4949263;28;20211;-61
2022/04/05 00:48:49;;;;;;;2.77;2.60;;;;;;;;;;4928329;29;20219;-60
2022/04/05 00:51:16;;;;;;;2.40;2.30;;;;;;;;;;4945079;29;20269;-59
2022/04/05 00:53:45;;;;;;;2.70;2.50;;;;;;;;;;4947235;29;20246;-59
2022/04/05 00:56:13;;;;;;;2.83;2.63;;;;;;;;;;4939984;29;20678;-59
2022/04/05 00:58:41;;;;;;;2.50;2.40;;;;;;;;;;4943403;29;20245;-60
2022/04/05 01:01:15;;;;;;;2.80;2.60;;;;;;;;;;4938094;29;20593;-59
2022/04/05 01:03:42;;;;;;;2.93;2.73;;;;;;;;;;4938693;29;20207;-59
2022/04/05 01:06:10;;;;;;;2.77;2.57;;;;;;;;;;4937173;29;20238;-59
2022/04/05 01:08:37;;;;;;;2.70;2.53;;;;;;;;;;4928363;29;20310;-59
2022/04/05 01:11:04;;;;;;;2.70;2.50;;;;;;;;;;4940075;29;20214;-59
2022/04/05 01:13:32;;;;;;;2.93;2.80;;;;;;;;;;4943346;29;20203;-59
2022/04/05 01:15:59;;;;;;;2.47;2.37;;;;;;;;;;4932195;29;20556;-59
2022/04/05 01:18:27;;;;;;;2.53;2.43;;;;;;;;;;4931194;29;20682;-59
2022/04/05 01:20:56;;;;;;;2.73;2.63;;;;;;;;;;4936863;29;20602;-60
2022/04/05 01:23:23;;;;;;;2.93;2.50;;;;;;;;;;4947181;29;20322;-60
2022/04/05 01:25:52;;;;;;;2.70;2.60;;;;;;;;;;4946343;29;20226;-60
2022/04/05 01:28:19;;;;;;;3.40;3.10;;;;;;;;;;4936305;29;20247;-58
2022/04/05 01:30:46;;;;;;;2.83;2.63;;;;;;;;;;4939255;29;20239;-60
2022/04/05 01:33:13;;;;;;;2.97;2.77;;;;;;;;;;4929202;29;20211;-59
2022/04/05 01:35:40;;;;;;;2.70;2.50;;;;;;;;;;4929060;29;20223;-59
2022/04/05 01:38:08;;;;;;;2.50;2.40;;;;;;;;;;4942464;29;20323;-59
2022/04/05 01:40:35;;;;;;;2.63;2.53;;;;;;;;;;4941299;29;20656;-59
2022/04/05 01:43:04;;;;;;;2.77;2.67;;;;;;;;;;4942725;28;20215;-59
2022/04/05 01:45:31;;;;;;;3.13;2.27;;;;;;;;;;4945270;29;20273;-62
2022/04/05 01:47:58;;;;;;;2.07;1.97;;;;;;;;;;4931113;29;20636;-60
2022/04/05 01:50:25;;;;;;;2.87;2.67;;;;;;;;;;4941575;29;20227;-60
2022/04/05 01:52:52;;;;;;;2.17;2.07;;;;;;;;;;4932982;29;20234;-60
2022/04/05 01:55:19;;;;;;;2.77;2.57;;;;;;;;;;4933295;29;20219;-59
2022/04/05 01:57:46;;;;;;;2.47;2.37;;;;;;;;;;4936354;29;20218;-59
2022/04/05 02:00:15;;;;;;;2.80;2.37;;;;;;;;;;4947903;28;20207;-60
2022/04/05 02:02:42;;;;;;;2.60;2.40;;;;;;;;;;4945349;29;20211;-59
2022/04/05 02:05:10;;;;;;;2.30;2.20;;;;;;;;;;4942271;29;20216;-59
2022/04/05 02:07:37;;;;;;;2.37;2.27;;;;;;;;;;4946272;29;20415;-59
2022/04/05 02:10:05;;;;;;;2.20;2.10;;;;;;;;;;4937289;29;20299;-59
2022/04/05 02:12:32;;;;;;;2.40;2.30;;;;;;;;;;4946178;29;20745;-60
2022/04/05 02:14:59;;;;;;;2.17;2.07;;;;;;;;;;4948157;28;20226;-60
2022/04/05 02:17:27;;;;;;;2.57;2.40;;;;;;;;;;4941969;29;20263;-59
2022/04/05 02:19:56;;;;;;;2.00;1.93;;;;;;;;;;4933383;29;20195;-59
2022/04/05 02:22:24;;;;;;;1.83;1.73;;;;;;;;;;4938567;29;20756;-61
2022/04/05 02:24:52;;;;;;;2.27;2.17;;;;;;;;;;4932369;29;20763;-60
2022/04/05 02:27:19;;;;;;;2.13;2.00;;;;;;;;;;4942832;29;20274;-60
2022/04/05 02:29:46;;;;;;;4.77;2.17;;;;;;;;;;4946956;29;20359;-60
2022/04/05 02:32:13;;;;;;;1.93;1.83;;;;;;;;;;4934260;29;20548;-59
2022/04/05 02:34:42;;;;;;;1.97;1.87;;;;;;;;;;4945491;29;20211;-59
2022/04/05 02:37:09;;;;;;;2.17;2.10;;;;;;;;;;4934823;29;20400;-60
2022/04/05 02:39:36;;;;;;;2.37;2.20;;;;;;;;;;4952300;28;20205;-60
2022/04/05 02:42:03;;;;;;;1.60;1.50;;;;;;;;;;4956384;28;20203;-61
2022/04/05 02:44:30;;;;;;;1.93;1.83;;;;;;;;;;4954084;28;20313;-60
2022/04/05 02:46:57;;;;;;;2.13;2.03;;;;;;;;;;4956255;28;20202;-58
2022/04/05 02:49:24;;;;;;;2.30;2.20;;;;;;;;;;4942524;29;20323;-58
2022/04/05 02:51:53;;;;;;;2.13;2.07;;;;;;;;;;4932337;29;20208;-59
2022/04/05 02:54:20;;;;;;;2.00;1.90;;;;;;;;;;4949205;28;20258;-59
2022/04/05 02:56:47;;;;;;;2.30;2.10;;;;;;;;;;4951456;29;20638;-59
2022/04/05 02:59:14;;;;;;;2.03;1.93;;;;;;;;;;4952108;28;20282;-59
2022/04/05 03:01:41;;;;;;;2.10;2.00;;;;;;;;;;4950209;29;20298;-59
2022/04/05 03:04:08;;;;;;;2.20;2.10;;;;;;;;;;4950981;28;20614;-60
2022/04/05 03:06:35;;;;;;;2.23;2.10;;;;;;;;;;4950528;29;20203;-60
2022/04/05 03:09:04;;;;;;;1.70;1.60;;;;;;;;;;4953232;28;20211;-61
2022/04/05 03:11:31;;;;;;;2.00;1.80;;;;;;;;;;4948359;29;20219;-60
2022/04/05 03:13:58;;;;;;;1.80;1.80;;;;;;;;;;4957515;28;20203;-61
2022/04/05 03:16:25;;;;;;;2.30;2.10;;;;;;;;;;4961823;28;20202;-59
2022/04/05 03:18:53;;;;;;;1.77;1.67;;;;;;;;;;4960642;28;20493;-60
2022/04/05 03:21:20;;;;;;;1.80;1.80;;;;;;;;;;4960558;28;20694;-59
2022/04/05 03:23:47;;;;;;;1.80;1.70;;;;;;;;;;4957536;28;20210;-59
2022/04/05 03:26:16;;;;;;;1.73;1.63;;;;;;;;;;4959116;28;20226;-59
2022/04/05 03:28:43;;;;;;;1.40;1.40;;;;;;;;;;4957246;28;20751;-60
2022/04/05 03:31:10;;;;;;;1.93;1.70;;;;;;;;;;4955802;28;20234;-59
2022/04/05 03:33:39;;;;;;;1.40;1.30;;;;;;;;;;4957515;28;20241;-59
2022/04/05 03:36:06;;;;;;;1.83;1.77;;;;;;;;;;4961085;28;20219;-59
2022/04/05 03:38:33;;;;;;;1.73;1.63;;;;;;;;;;4959357;28;20213;-59
2022/04/05 03:41:00;;;;;;;1.47;1.47;;;;;;;;;;4961212;28;20206;-59
2022/04/05 03:43:28;;;;;;;1.60;1.60;;;;;;;;;;4959649;28;20230;-59
2022/04/05 03:45:55;;;;;;;2.00;1.90;;;;;;;;;;4962317;28;20665;-59
2022/04/05 03:48:22;;;;;;;1.77;1.67;;;;;;;;;;4955629;28;20258;-59
2022/04/05 03:50:49;;;;;;;1.73;1.73;;;;;;;;;;4959226;28;20236;-59
2022/04/05 03:53:17;;;;;;;1.90;1.80;;;;;;;;;;4960991;28;20497;-59
2022/04/05 03:55:44;;;;;;;1.67;1.67;;;;;;;;;;4958606;28;20696;-58
2022/04/05 03:58:12;;;;;;;1.73;1.63;;;;;;;;;;4956487;28;20233;-59
2022/04/05 04:00:40;;;;;;;2.10;2.00;;;;;;;;;;4960141;28;20202;-58
2022/04/05 04:03:07;;;;;;;1.67;1.63;;;;;;;;;;4957971;28;20207;-59
2022/04/05 04:05:35;;;;;;;2.10;2.00;;;;;;;;;;4949011;28;20207;-58
2022/04/05 04:08:02;;;;;;;1.87;1.77;;;;;;;;;;4949951;29;20274;-59
2022/04/05 04:10:29;;;;;;;1.67;1.57;;;;;;;;;;4951954;29;20230;-58
2022/04/05 04:12:56;;;;;;;1.97;1.87;;;;;;;;;;4949506;29;20665;-59
2022/04/05 04:15:23;;;;;;;1.70;1.70;;;;;;;;;;4949450;29;20215;-59
2022/04/05 04:17:51;;;;;;;2.23;1.73;;;;;;;;;;4948539;29;20210;-59
2022/04/05 04:20:18;;;;;;;1.60;1.50;;;;;;;;;;4950945;29;20290;-59
2022/04/05 04:22:45;;;;;;;1.97;1.80;;;;;;;;;;4947803;29;20211;-59
2022/04/05 04:25:12;;;;;;;1.83;1.73;;;;;;;;;;4950524;29;20223;-59
2022/04/05 04:27:39;;;;;;;2.07;1.97;;;;;;;;;;4949206;29;20817;-59
2022/04/05 04:30:07;;;;;;;1.60;1.50;;;;;;;;;;4944236;29;20231;-59
2022/04/05 04:32:34;;;;;;;1.60;1.60;;;;;;;;;;4949728;29;20215;-59
2022/04/05 04:35:02;;;;;;;2.30;2.13;;;;;;;;;;4949960;29;20677;-59
2022/04/05 04:37:29;;;;;;;1.27;1.27;;;;;;;;;;4949514;29;20748;-59
2022/04/05 04:39:56;;;;;;;1.30;1.30;;;;;;;;;;4949547;29;20669;-59
2022/04/05 04:42:23;;;;;;;1.80;1.77;;;;;;;;;;4951584;29;20215;-60
2022/04/05 04:44:50;;;;;;;1.40;1.40;;;;;;;;;;4941976;28;20214;-59
2022/04/05 04:47:18;;;;;;;1.93;1.83;;;;;;;;;;4946697;28;20219;-59
2022/04/05 04:49:45;;;;;;;1.60;1.60;;;;;;;;;;4937524;29;20290;-60
2022/04/05 04:52:13;;;;;;;1.30;1.30;;;;;;;;;;4933973;29;20596;-59
2022/04/05 04:54:40;;;;;;;1.87;1.53;;;;;;;;;;4933157;29;20214;-59
2022/04/05 04:57:07;;;;;;;2.30;1.77;;;;;;;;;;4938002;29;20215;-59
2022/04/05 04:59:34;;;;;;;1.57;1.57;;;;;;;;;;4949305;29;20207;-59
2022/04/05 05:02:02;;;;;;;1.90;1.63;;;;;;;;;;4934270;29;20210;-59
2022/04/05 05:04:29;;;;;;;1.27;1.27;;;;;;;;;;4946732;29;20302;-59
2022/04/05 05:06:56;;;;;;;1.70;1.60;;;;;;;;;;4949806;29;20219;-59
2022/04/05 05:09:24;;;;;;;1.73;1.63;;;;;;;;;;4941699;29;20697;-59
2022/04/05 05:11:51;;;;;;;1.53;1.50;;;;;;;;;;4940226;29;20239;-59
2022/04/05 05:14:18;;;;;;;1.40;1.30;;;;;;;;;;4934014;29;20950;-60
2022/04/05 05:16:45;;;;;;;1.63;1.63;;;;;;;;;;4933390;29;20207;-59
2022/04/05 05:19:12;;;;;;;1.77;1.73;;;;;;;;;;4942779;29;20203;-59
2022/04/05 05:21:39;;;;;;;1.67;1.57;;;;;;;;;;4951529;29;20211;-59
2022/04/05 05:24:06;;;;;;;1.70;1.60;;;;;;;;;;4951447;29;20614;-59
2022/04/05 05:26:35;;;;;;;2.13;2.00;;;;;;;;;;4950362;29;20701;-59
2022/04/05 05:29:02;;;;;;;2.00;1.90;;;;;;;;;;4951226;29;20484;-59
2022/04/05 05:31:29;;;;;;;1.77;1.67;;;;;;;;;;4951097;29;20239;-60
2022/04/05 05:33:56;;;;;;;2.10;2.00;;;;;;;;;;4950937;29;20203;-59
2022/04/05 05:36:23;;;;;;;2.13;2.03;;;;;;;;;;4951553;29;20207;-59
2022/04/05 05:38:50;;;;;;;2.20;2.00;;;;;;;;;;4936781;29;20282;-59
2022/04/05 05:41:17;;;;;;;2.40;2.30;;;;;;;;;;4946206;29;20212;-59
2022/04/05 05:43:45;;;;;;;1.93;1.83;;;;;;;;;;4933638;29;20246;-58
2022/04/05 05:46:13;;;;;;;2.40;2.20;;;;;;;;;;4945489;29;20219;-58
2022/04/05 05:48:40;;;;;;;2.47;2.10;;;;;;;;;;4942246;29;20223;-59
2022/04/05 05:51:07;;;;;;;2.00;1.90;;;;;;;;;;4950707;29;20673;-59
2022/04/05 05:53:34;;;;;;;2.20;2.10;;;;;;;;;;4947154;29;20210;-59
2022/04/05 05:56:01;;;;;;;2.83;2.40;;;;;;;;;;4955205;28;20566;-60
2022/04/05 05:58:29;;;;;;;2.33;2.23;;;;;;;;;;4950832;29;20443;-60
2022/04/05 06:00:57;;;;;;;2.33;2.20;;;;;;;;;;4949451;29;20230;-60
2022/04/05 06:03:24;;;;;;;3.83;2.20;;;;;;;;;;4938226;29;20215;-60
2022/04/05 06:05:51;;;;;;;2.10;2.00;;;;;;;;;;4933873;29;20220;-59
2022/04/05 06:08:19;;;;;;;3.50;2.10;;;;;;;;;;4951055;29;20254;-60
2022/04/05 06:10:46;;;;;;;2.13;2.03;;;;;;;;;;4948610;29;20277;-59
2022/04/05 06:13:13;;;;;;;2.10;2.00;;;;;;;;;;4942944;29;20218;-60
2022/04/05 06:15:40;;;;;;;2.30;2.20;;;;;;;;;;4931821;29;20307;-59
2022/04/05 06:18:08;;;;;;;1.80;1.70;;;;;;;;;;4942832;29;20279;-59
2022/04/05 06:20:36;;;;;;;2.27;2.00;;;;;;;;;;4937278;29;20211;-59
2022/04/05 06:23:03;;;;;;;2.27;2.17;;;;;;;;;;4944998;29;20341;-59
2022/04/05 06:25:31;;;;;;;3.00;2.23;;;;;;;;;;4931849;29;20231;-59
2022/04/05 06:28:01;;;;;;;2.50;2.30;;;;;;;;;;4944611;28;20249;-59
2022/04/05 06:30:28;;;;;;;2.50;2.40;;;;;;;;;;4947055;29;20247;-59
2022/04/05 06:33:05;;;;;;;2.37;2.20;;;;;;;;;;4944097;29;20211;-59
2022/04/05 06:35:34;;;;;;;2.50;2.30;;;;;;;;;;4935172;29;20617;-59
2022/04/05 06:38:01;;;;;;;2.23;2.13;;;;;;;;;;4932912;29;20223;-59
2022/04/05 06:40:28;;;;;;;3.10;2.40;;;;;;;;;;4948943;29;20214;-59
2022/04/05 06:42:55;;;;;;;2.63;2.53;;;;;;;;;;4946712;29;20633;-59
2022/04/05 06:45:24;;;;;;;2.53;2.33;;;;;;;;;;4933876;29;20577;-59
2022/04/05 06:47:51;;;;;;;3.00;2.77;;;;;;;;;;4947262;29;20211;-59
2022/04/05 06:50:20;;;;;;;3.00;2.80;;;;;;;;;;4935515;29;20676;-59
2022/04/05 06:52:49;;;;;;;2.33;2.20;;;;;;;;;;4942734;29;20250;-59
2022/04/05 06:55:16;;;;;;;3.40;2.53;;;;;;;;;;4946763;29;20745;-59
2022/04/05 06:57:43;;;;;;;3.60;3.00;;;;;;;;;;4944841;29;20215;-59
2022/04/05 07:00:11;;;;;;;2.70;2.50;;;;;;;;;;4962229;28;20211;-59
2022/04/05 07:02:39;;;;;;;2.83;2.63;;;;;;;;;;4939238;29;20576;-59
2022/04/05 07:05:06;;;;;;;2.73;2.60;;;;;;;;;;4949985;29;20218;-59
2022/04/05 07:07:34;;;;;;;2.83;2.67;;;;;;;;;;4949952;29;20204;-59
2022/04/05 07:10:02;;;;;;;2.37;2.27;;;;;;;;;;4940648;29;20687;-57
2022/04/05 07:12:29;;;;;;;2.83;2.63;;;;;;;;;;4939873;29;20270;-60
2022/04/05 07:14:56;;;;;;;2.67;2.47;;;;;;;;;;4935256;29;20215;-60
2022/04/05 07:17:23;;;;;;;2.57;2.37;;;;;;;;;;4949891;29;20587;-58
2022/04/05 07:19:50;;;;;;;2.40;2.20;;;;;;;;;;4948312;29;20233;-58
2022/04/05 07:22:17;;;;;;;2.50;2.30;;;;;;;;;;4948109;29;20203;-59
2022/04/05 07:24:45;;;;;;;2.47;2.37;;;;;;;;;;4947491;29;20218;-59
2022/04/05 07:27:14;;;;;;;2.30;2.20;;;;;;;;;;4943528;29;20229;-59
2022/04/05 07:29:41;;;;;;;2.10;2.00;;;;;;;;;;4949326;29;20223;-59
2022/04/05 07:32:08;;;;;;;2.23;2.03;;;;;;;;;;4948769;29;20682;-59
2022/04/05 07:34:35;;;;;;;2.13;2.03;;;;;;;;;;4935807;29;20255;-59
2022/04/05 07:37:02;;;;;;;1.90;1.80;;;;;;;;;;4940265;29;20701;-59
2022/04/05 07:39:30;;;;;;;1.27;1.27;;;;;;;;;;4950059;28;20583;-59
2022/04/05 07:41:57;;;;;;;1.87;1.77;;;;;;;;;;4952353;29;20271;-59
2022/04/05 07:44:26;;;;;;;1.67;1.57;;;;;;;;;;4953291;29;20222;-59
2022/04/05 07:46:53;;;;;;;1.50;1.50;;;;;;;;;;4953651;29;20721;-59
2022/04/05 07:49:20;;;;;;;1.27;1.27;;;;;;;;;;4940057;29;20299;-60
2022/04/05 07:51:47;;;;;;;1.30;1.23;;;;;;;;;;4946640;29;20297;-59
2022/04/05 07:54:14;;;;;;;1.87;1.63;;;;;;;;;;4941681;29;20205;-60
2022/04/05 07:56:41;;;;;;;1.40;1.40;;;;;;;;;;4944120;29;20673;-59
2022/04/05 07:59:08;;;;;;;1.17;1.17;;;;;;;;;;4952751;29;20262;-59
2022/04/05 08:01:36;;;;;;;0.90;0.90;;;;;;;;;;4953712;29;20266;-60
2022/04/05 08:04:04;;;;;;;2.00;1.90;;;;;;;;;;4951430;29;20208;-59
2022/04/05 08:06:31;;;;;;;1.10;1.10;;;;;;;;;;4954177;29;20210;-59
2022/04/05 08:08:59;;;;;;;1.60;1.50;;;;;;;;;;4938176;29;20298;-59
2022/04/05 08:11:27;;;;;;;1.23;1.23;;;;;;;;;;4953749;29;20243;-59
2022/04/05 08:13:55;;;;;;;0.90;0.90;;;;;;;;;;4951534;29;20627;-59
2022/04/05 08:16:22;;;;;;;0.90;0.90;;;;;;;;;;4933925;29;20567;-59
2022/04/05 08:18:50;;;;;;;0.70;0.70;;;;;;;;;;4946316;29;20210;-59
2022/04/05 08:21:18;;;;;;;0.80;0.80;;;;;;;;;;4951843;29;20267;-59
2022/04/05 08:23:48;;;;;;;1.07;1.07;;;;;;;;;;4952033;29;20226;-60
2022/04/05 08:26:15;;;;;;;0.73;0.73;;;;;;;;;;4946361;29;20230;-59
2022/04/05 08:28:42;;;;;;;0.93;0.93;;;;;;;;;;4939269;29;20251;-59
2022/04/05 08:31:09;;;;;;;0.90;0.90;;;;;;;;;;4933583;29;20298;-60
2022/04/05 08:33:36;;;;;;;1.00;1.00;;;;;;;;;;4945170;29;20271;-59
2022/04/05 08:36:05;;;;;;;1.10;1.10;;;;;;;;;;4933437;29;20216;-60
2022/04/05 08:38:33;;;;;;;1.17;1.17;;;;;;;;;;4938022;29;20208;-60
2022/04/05 08:41:01;;;;;;;2.47;1.93;;;;;;;;;;4933769;29;20225;-59
2022/04/05 08:43:29;;;;;;;2.37;2.17;;;;;;;;;;4933817;29;20207;-59
2022/04/05 08:45:59;;;;;;;2.90;2.70;;;;;;;;;;4933249;29;20654;-60
2022/04/05 08:48:27;;;;;;;1.17;1.17;;;;;;;;;;4938156;29;20299;-59
2022/04/05 08:50:55;;;;;;;0.87;0.87;;;;;;;;;;4949865;28;20211;-60
2022/04/05 08:53:23;;;;;;;1.07;1.07;;;;;;;;;;4951399;29;20225;-59
2022/04/05 08:55:51;;;;;;;1.00;1.00;;;;;;;;;;4951878;29;20215;-60
2022/04/05 08:58:18;;;;;;;1.40;1.30;;;;;;;;;;4949613;29;20218;-62
2022/04/05 09:00:45;;;;;;;0.80;0.80;;;;;;;;;;4937353;29;20217;-60
2022/04/05 09:03:12;;;;;;;0.87;0.87;;;;;;;;;;4952528;29;20701;-60
2022/04/05 09:05:42;;;;;;;0.70;0.70;;;;;;;;;;4948683;29;20267;-60
2022/04/05 09:08:13;;;;;;;1.00;1.00;;;;;;;;;;4932972;29;20218;-59
2022/04/05 09:10:42;;;;;;;0.83;0.83;;;;;;;;;;4935470;29;20227;-59
2022/04/05 09:13:11;;;;;;;2.87;1.17;;;;;;;;;;4936416;29;20406;-59
2022/04/05 09:15:38;;;;;;;1.50;1.50;;;;;;;;;;4950470;29;20218;-60
2022/04/05 09:18:06;;;;;;;1.30;1.30;;;;;;;;;;4951019;29;20282;-60
2022/04/05 09:20:33;;;;;;;1.23;0.90;;;;;;;;;;4947959;29;20301;-60
2022/04/05 09:23:02;;;;;;;1.80;1.20;;;;;;;;;;4950492;29;20274;-59
2022/04/05 09:25:29;;;;;;;1.27;1.17;;;;;;;;;;4933000;29;20240;-60
2022/04/05 09:27:58;;;;;;;0.90;0.90;;;;;;;;;;4945196;29;20251;-59
2022/04/05 09:30:27;;;;;;;0.77;0.77;;;;;;;;;;4939242;29;20255;-60
2022/04/05 09:32:55;;;;;;;0.87;0.87;;;;;;;;;;4950743;29;20231;-60
2022/04/05 09:35:23;;;;;;;0.90;0.90;;;;;;;;;;4950612;29;20526;-60
2022/04/05 09:37:51;;;;;;;0.73;0.73;;;;;;;;;;4950586;29;20207;-60
2022/04/05 09:40:23;;;;;;;0.97;0.97;;;;;;;;;;4950590;29;20211;-60
2022/04/05 09:43:02;;;;;;;0.77;0.77;;;;;;;;;;4950807;29;20217;-59
2022/04/05 09:45:48;;;;;;;1.00;1.00;;;;;;;;;;4949354;29;20213;-60
2022/04/05 09:48:16;;;;;;;0.97;0.97;;;;;;;;;;4941181;29;20215;-59
2022/04/05 09:50:59;;;;;;;1.00;1.00;;;;;;;;;;4947643;29;20215;-59
2022/04/05 09:53:26;;;;;;;0.80;0.80;;;;;;;;;;4947313;29;20607;-60
2022/04/05 09:56:02;;;;;;;0.70;0.70;;;;;;;;;;4934268;29;20219;-59
2022/04/05 09:58:31;;;;;;;0.60;0.60;;;;;;;;;;4949200;29;20681;-59
2022/04/05 10:01:08;;;;;;;0.70;0.70;;;;;;;;;;4941543;29;20211;-59
2022/04/05 10:03:35;;;;;;;0.90;0.90;;;;;;;;;;4950706;28;20203;-59
2022/04/05 10:06:03;;;;;;;0.80;0.80;;;;;;;;;;4950722;29;20234;-59
2022/04/05 10:08:31;;;;;;;0.80;0.80;;;;;;;;;;4951404;29;20321;-60
2022/04/05 10:10:59;;;;;;;0.90;0.90;;;;;;;;;;4942579;29;20259;-59
2022/04/05 10:13:26;;;;;;;0.90;0.80;;;;;;;;;;4932163;29;20235;-59
2022/04/05 10:16:00;;;;;;;0.60;0.60;;;;;;;;;;4933002;29;20207;-60
2022/04/05 10:18:32;;;;;;;0.80;0.80;;;;;;;;;;4929953;29;20573;-60
2022/04/05 10:21:00;;;;;;;0.70;0.70;;;;;;;;;;4939516;29;20226;-59
2022/04/05 10:23:27;;;;;;;0.70;0.70;;;;;;;;;;4949875;29;20685;-59
2022/04/05 10:25:54;;;;;;;0.60;0.60;;;;;;;;;;4949488;29;20254;-59
2022/04/05 10:28:25;;;;;;;0.63;0.63;;;;;;;;;;4950088;29;20254;-59
2022/04/05 10:30:57;;;;;;;0.67;0.67;;;;;;;;;;4942608;29;20211;-59
2022/04/05 10:33:27;;;;;;;0.70;0.70;;;;;;;;;;4931665;29;20322;-60
2022/04/05 10:35:57;;;;;;;0.70;0.70;;;;;;;;;;4945602;29;20226;-60
2022/04/05 10:38:24;;;;;;;0.70;0.70;;;;;;;;;;4947414;29;20230;-59
2022/04/05 10:41:10;;;;;;;0.60;0.60;;;;;;;;;;4947495;29;20672;-58
2022/04/05 10:43:38;;;;;;;0.63;0.63;;;;;;;;;;4947195;29;20581;-59
2022/04/05 10:46:05;;;;;;;0.70;0.70;;;;;;;;;;4949552;29;20211;-59
2022/04/05 10:48:34;;;;;;;0.70;0.70;;;;;;;;;;4950097;29;20215;-59
2022/04/05 10:51:30;;;;;;;0.50;0.50;;;;;;;;;;4950518;29;20266;-59
2022/04/05 10:54:19;;;;;;;0.70;0.70;;;;;;;;;;4950226;29;20231;-59
2022/04/05 10:57:16;;;;;;;0.80;0.80;;;;;;;;;;4937272;29;20589;-59
2022/04/05 10:59:47;;;;;;;1.00;1.00;;;;;;;;;;4950405;29;20637;-59
2022/04/05 11:02:35;;;;;;;0.70;0.70;;;;;;;;;;4950460;29;20388;-60
2022/04/05 11:05:05;;;;;;;0.80;0.80;;;;;;;;;;4946348;29;20679;-60
2022/04/05 11:07:47;;;;;;;1.00;1.00;;;;;;;;;;4931327;29;20212;-60
2022/04/05 11:10:15;;;;;;;0.90;0.90;;;;;;;;;;4936918;29;20701;-61
2022/04/05 11:12:43;;;;;;;0.80;0.80;;;;;;;;;;4950363;29;20234;-60
2022/04/05 11:15:11;;;;;;;1.13;1.13;;;;;;;;;;4949083;28;20270;-60
2022/04/05 11:17:39;;;;;;;0.77;0.77;;;;;;;;;;4934783;29;20218;-60
2022/04/05 11:20:09;;;;;;;1.03;1.03;;;;;;;;;;4935579;29;20634;-60
2022/04/05 11:22:36;;;;;;;0.90;0.90;;;;;;;;;;4938714;29;20206;-59
2022/04/05 11:25:05;;;;;;;1.00;1.00;;;;;;;;;;4952829;28;20249;-59
2022/04/05 11:27:34;;;;;;;0.97;0.97;;;;;;;;;;4962139;28;20282;-59
2022/04/05 11:30:19;;;;;;;1.10;1.10;;;;;;;;;;4964404;28;20206;-59
2022/04/05 11:33:01;;;;;;;0.90;0.90;;;;;;;;;;4966540;28;20227;-58
2022/04/05 11:35:30;;;;;;;1.10;1.10;;;;;;;;;;4953264;29;20211;-59
2022/04/05 11:37:57;;;;;;;1.03;1.03;;;;;;;;;;4943374;29;20282;-58
2022/04/05 11:40:24;;;;;;;1.50;1.40;;;;;;;;;;4947202;29;20519;-60
2022/04/05 11:42:51;;;;;;;2.57;1.10;;;;;;;;;;4948617;28;20251;-59
2022/04/05 11:45:18;;;;;;;1.90;1.27;;;;;;;;;;4947984;29;20225;-60
2022/04/05 11:47:52;;;;;;;1.30;1.30;;;;;;;;;;4946988;29;20211;-59
2022/04/05 11:50:20;;;;;;;1.20;1.20;;;;;;;;;;4943146;29;20233;-59
2022/04/05 11:52:48;;;;;;;1.03;1.03;;;;;;;;;;4948760;29;20250;-59
2022/04/05 11:58:25;;;;;;;1.07;1.07;;;;;;;;;;4888910;29;20261;-60
2022/04/05 12:00:52;;;;;;;1.00;1.00;;;;;;;;;;4938489;29;20269;-59
2022/04/05 12:03:19;;;;;;;1.10;1.10;;;;;;;;;;4949170;29;20712;-60
2022/04/05 12:05:47;;;;;;;1.13;1.13;;;;;;;;;;4948973;29;20557;-59
2022/04/05 12:08:16;;;;;;;0.83;0.83;;;;;;;;;;4948631;29;20403;-59
2022/04/05 12:10:44;;;;;;;1.33;1.33;;;;;;;;;;4948331;29;20215;-59
2022/04/05 12:13:11;;;;;;;1.20;1.20;;;;;;;;;;4946822;29;20230;-59
2022/04/05 12:15:38;;;;;;;1.43;1.43;;;;;;;;;;4947383;29;20234;-60
2022/04/05 12:18:18;;;;;;;1.33;1.33;;;;;;;;;;4947516;29;20214;-60
2022/04/05 12:20:54;;;;;;;1.33;1.20;;;;;;;;;;4947846;29;20234;-59
2022/04/05 12:23:24;;;;;;;1.37;1.37;;;;;;;;;;4947597;29;20214;-59
2022/04/05 12:26:11;;;;;;;1.33;1.33;;;;;;;;;;4946872;28;20263;-60
2022/04/05 12:28:39;;;;;;;1.60;1.50;;;;;;;;;;4946931;29;20243;-60
2022/04/05 12:31:06;;;;;;;1.30;1.30;;;;;;;;;;4947163;29;20238;-59
2022/04/05 12:33:34;;;;;;;1.30;1.30;;;;;;;;;;4948491;28;20736;-59
2022/04/05 12:36:01;;;;;;;1.40;1.30;;;;;;;;;;4966557;28;20221;-59
2022/04/05 12:38:29;;;;;;;1.60;1.60;;;;;;;;;;4966511;28;20218;-60
2022/04/05 12:40:57;;;;;;;1.70;1.70;;;;;;;;;;4928104;29;20216;-60
2022/04/05 12:43:24;;;;;;;1.80;1.70;;;;;;;;;;4928077;29;20238;-60
2022/04/05 12:45:51;;;;;;;2.10;2.00;;;;;;;;;;4942920;29;20677;-60
2022/04/05 12:48:20;;;;;;;2.07;1.97;;;;;;;;;;4947754;29;20226;-59
2022/04/05 12:50:49;;;;;;;1.83;1.73;;;;;;;;;;4948116;29;20222;-59
2022/04/05 12:53:24;;;;;;;1.87;1.80;;;;;;;;;;4937221;29;20243;-59
2022/04/05 12:55:57;;;;;;;2.00;1.90;;;;;;;;;;4926651;29;20215;-59
2022/04/05 12:58:34;;;;;;;2.10;1.97;;;;;;;;;;4928769;29;20360;-59
2022/04/05 13:01:01;;;;;;;1.83;1.73;;;;;;;;;;4941067;29;20741;-58
2022/04/05 13:03:31;;;;;;;2.03;1.93;;;;;;;;;;4943718;29;20211;-59
2022/04/05 13:08:43;;;;;;;2.03;1.97;;;;;;;;;;4934987;29;20284;-60
2022/04/05 13:11:25;;;;;;;2.00;1.93;;;;;;;;;;4938556;29;20638;-65
2022/04/05 13:14:01;;;;;;;2.20;2.10;;;;;;;;;;4941415;29;20236;-58
2022/04/05 13:16:28;;;;;;;2.33;2.20;;;;;;;;;;4938572;29;20207;-62
2022/04/05 13:18:55;;;;;;;2.33;1.90;;;;;;;;;;4928507;29;20615;-59
2022/04/05 13:21:23;;;;;;;2.03;1.93;;;;;;;;;;4943471;29;20278;-60
2022/04/05 13:24:00;;;;;;;2.57;2.37;;;;;;;;;;4945535;29;20596;-59
2022/04/05 13:26:29;;;;;;;2.17;2.07;;;;;;;;;;4931091;29;20274;-59
2022/04/05 13:29:02;;;;;;;2.63;2.43;;;;;;;;;;4956868;28;20300;-60
2022/04/05 13:31:32;;;;;;;2.40;2.30;;;;;;;;;;4958225;28;20223;-60
2022/04/05 13:34:00;;;;;;;2.20;2.10;;;;;;;;;;4937310;29;20740;-60
2022/04/05 13:36:27;;;;;;;2.27;2.07;;;;;;;;;;4944876;28;20756;-59
2022/04/05 13:38:54;;;;;;;2.50;2.40;;;;;;;;;;4965880;28;20717;-59
2022/04/05 13:41:21;;;;;;;2.37;2.27;;;;;;;;;;4935635;28;20208;-60
2022/04/05 13:43:52;;;;;;;2.67;2.53;;;;;;;;;;4928602;29;20215;-60
2022/04/05 13:46:19;;;;;;;2.27;2.17;;;;;;;;;;4946295;29;20689;-60
2022/04/05 13:48:46;;;;;;;2.57;2.37;;;;;;;;;;4947047;29;20690;-60
2022/04/05 13:51:13;;;;;;;2.60;2.40;;;;;;;;;;4933536;29;20219;-60
2022/04/05 13:53:40;;;;;;;1.97;1.87;;;;;;;;;;4927540;29;20236;-60
2022/04/05 13:56:08;;;;;;;2.50;2.27;;;;;;;;;;4927188;29;20526;-59
2022/04/05 13:58:35;;;;;;;2.23;2.13;;;;;;;;;;4927519;29;20220;-59
2022/04/05 14:01:03;;;;;;;2.53;2.33;;;;;;;;;;4932554;29;20211;-59
2022/04/05 14:03:31;;;;;;;2.70;2.20;;;;;;;;;;4946534;29;20214;-60
2022/04/05 14:05:58;;;;;;;2.83;2.73;;;;;;;;;;4940573;29;20266;-61
2022/04/05 14:08:25;;;;;;;4.63;2.60;;;;;;;;;;4964545;28;20214;-59
2022/04/05 14:10:52;;;;;;;3.00;2.80;;;;;;;;;;4960246;28;20215;-60
2022/04/05 14:13:19;;;;;;;2.47;2.37;;;;;;;;;;4946304;29;20789;-60
2022/04/05 14:15:46;;;;;;;2.43;2.33;;;;;;;;;;4946129;28;20215;-60
2022/04/05 14:18:16;;;;;;;2.90;2.60;;;;;;;;;;4944087;29;20749;-60
2022/04/05 14:20:43;;;;;;;2.57;2.40;;;;;;;;;;4944293;29;20238;-60
2022/04/05 14:23:10;;;;;;;2.67;2.47;;;;;;;;;;4936974;29;20251;-60
2022/04/05 14:25:37;;;;;;;2.07;1.97;;;;;;;;;;4931432;29;20246;-60
2022/04/05 14:28:04;;;;;;;2.13;2.03;;;;;;;;;;4936402;29;20682;-60
2022/04/05 14:30:32;;;;;;;2.60;2.50;;;;;;;;;;4941193;29;20274;-60
2022/04/05 14:32:59;;;;;;;2.13;2.03;;;;;;;;;;4938482;29;20754;-60
2022/04/05 14:35:27;;;;;;;2.27;2.07;;;;;;;;;;4926872;29;20314;-59
2022/04/05 14:37:54;;;;;;;2.50;2.40;;;;;;;;;;4926859;29;20666;-59
2022/04/05 14:40:21;;;;;;;2.20;2.10;;;;;;;;;;4931301;29;20265;-59
2022/04/05 14:42:48;;;;;;;1.90;1.80;;;;;;;;;;4937527;29;20330;-59
2022/04/05 14:45:15;;;;;;;3.10;2.50;;;;;;;;;;4938125;29;20651;-60
2022/04/05 14:47:42;;;;;;;2.23;2.03;;;;;;;;;;4935111;29;20294;-59
2022/04/05 14:50:10;;;;;;;2.33;2.23;;;;;;;;;;4927727;29;20216;-59
2022/04/05 14:52:39;;;;;;;2.37;2.27;;;;;;;;;;4926701;29;20227;-59
2022/04/05 14:55:06;;;;;;;2.50;2.33;;;;;;;;;;4926589;29;20703;-59
2022/04/05 14:57:33;;;;;;;2.60;2.40;;;;;;;;;;4941799;29;20214;-60